sensor_id;sensor_type;location;lat;lon;timestamp;P1;durP1;ratioP1;P2;durP2;ratioP2
58260;SDS011;44058;52.898;6.502;2023-11-19T00:00:16;38.60;;;20.08;;
58260;SDS011;44058;52.898;6.502;2023-11-19T00:02:42;39.58;;;19.23;;
58260;SDS011;44058;52.898;6.502;2023-11-19T00:05:09;42.53;;;19.27;;
58260;SDS011;44058;52.898;6.502;2023-11-19T00:07:36;41.13;;;19.58;;
58260;SDS011;44058;52.898;6.502;2023-11-19T00:10:07;36.10;;;18.98;;
58260;SDS011;44058;52.898;6.502;2023-11-19T00:12:35;43.10;;;18.85;;
58260;SDS011;44058;52.898;6.502;2023-11-19T00:15:01;45.35;;;18.73;;
58260;SDS011;44058;52.898;6.502;2023-11-19T00:17:28;37.28;;;17.80;;
58260;SDS011;44058;52.898;6.502;2023-11-19T00:19:54;37.28;;;17.02;;
58260;SDS011;44058;52.898;6.502;2023-11-19T00:22:20;42.38;;;17.65;;
58260;SDS011;44058;52.898;6.502;2023-11-19T00:24:47;34.47;;;17.42;;
58260;SDS011;44058;52.898;6.502;2023-11-19T00:27:13;36.00;;;16.30;;
58260;SDS011;44058;52.898;6.502;2023-11-19T00:29:40;33.20;;;16.15;;
58260;SDS011;44058;52.898;6.502;2023-11-19T00:32:07;38.85;;;16.75;;
58260;SDS011;44058;52.898;6.502;2023-11-19T00:34:33;34.33;;;14.57;;
58260;SDS011;44058;52.898;6.502;2023-11-19T00:36:59;42.45;;;14.98;;
58260;SDS011;44058;52.898;6.502;2023-11-19T00:39:26;38.60;;;13.73;;
58260;SDS011;44058;52.898;6.502;2023-11-19T00:41:52;38.47;;;14.07;;
58260;SDS011;44058;52.898;6.502;2023-11-19T00:44:19;32.45;;;12.95;;
58260;SDS011;44058;52.898;6.502;2023-11-19T00:46:45;34.28;;;12.60;;
58260;SDS011;44058;52.898;6.502;2023-11-19T00:49:11;35.00;;;10.57;;
58260;SDS011;44058;52.898;6.502;2023-11-19T00:51:37;31.52;;;10.25;;
58260;SDS011;44058;52.898;6.502;2023-11-19T00:54:03;30.60;;;8.80;;
58260;SDS011;44058;52.898;6.502;2023-11-19T00:56:29;27.70;;;8.40;;
58260;SDS011;44058;52.898;6.502;2023-11-19T00:58:55;27.77;;;7.70;;
58260;SDS011;44058;52.898;6.502;2023-11-19T01:01:21;33.72;;;8.20;;
58260;SDS011;44058;52.898;6.502;2023-11-19T01:03:48;32.03;;;7.20;;
58260;SDS011;44058;52.898;6.502;2023-11-19T01:06:14;22.52;;;6.80;;
58260;SDS011;44058;52.898;6.502;2023-11-19T01:08:42;33.13;;;7.22;;
58260;SDS011;44058;52.898;6.502;2023-11-19T01:13:35;29.77;;;5.82;;
58260;SDS011;44058;52.898;6.502;2023-11-19T01:16:01;25.73;;;5.10;;
58260;SDS011;44058;52.898;6.502;2023-11-19T01:18:27;28.65;;;6.97;;
58260;SDS011;44058;52.898;6.502;2023-11-19T01:20:53;31.33;;;6.40;;
58260;SDS011;44058;52.898;6.502;2023-11-19T01:23:19;25.20;;;5.63;;
58260;SDS011;44058;52.898;6.502;2023-11-19T01:25:45;37.20;;;5.20;;
58260;SDS011;44058;52.898;6.502;2023-11-19T01:28:13;34.78;;;6.40;;
58260;SDS011;44058;52.898;6.502;2023-11-19T01:30:39;21.70;;;5.00;;
58260;SDS011;44058;52.898;6.502;2023-11-19T01:33:07;30.75;;;5.28;;
58260;SDS011;44058;52.898;6.502;2023-11-19T01:35:33;27.90;;;5.63;;
58260;SDS011;44058;52.898;6.502;2023-11-19T01:37:59;28.85;;;5.50;;
58260;SDS011;44058;52.898;6.502;2023-11-19T01:40:25;24.52;;;4.80;;
58260;SDS011;44058;52.898;6.502;2023-11-19T01:42:51;25.63;;;5.07;;
58260;SDS011;44058;52.898;6.502;2023-11-19T01:45:22;33.88;;;5.90;;
58260;SDS011;44058;52.898;6.502;2023-11-19T01:47:48;27.58;;;5.32;;
58260;SDS011;44058;52.898;6.502;2023-11-19T01:50:14;34.25;;;6.18;;
58260;SDS011;44058;52.898;6.502;2023-11-19T01:52:40;31.35;;;5.13;;
58260;SDS011;44058;52.898;6.502;2023-11-19T01:55:07;28.30;;;4.60;;
58260;SDS011;44058;52.898;6.502;2023-11-19T01:57:34;27.60;;;5.13;;
58260;SDS011;44058;52.898;6.502;2023-11-19T02:00:02;25.88;;;4.45;;
58260;SDS011;44058;52.898;6.502;2023-11-19T02:02:29;31.60;;;5.32;;
58260;SDS011;44058;52.898;6.502;2023-11-19T02:04:55;24.58;;;5.15;;
58260;SDS011;44058;52.898;6.502;2023-11-19T02:07:22;23.73;;;4.80;;
58260;SDS011;44058;52.898;6.502;2023-11-19T02:09:50;36.00;;;5.90;;
58260;SDS011;44058;52.898;6.502;2023-11-19T02:12:16;29.83;;;5.22;;
58260;SDS011;44058;52.898;6.502;2023-11-19T02:14:42;27.70;;;5.65;;
58260;SDS011;44058;52.898;6.502;2023-11-19T02:17:24;31.85;;;6.07;;
58260;SDS011;44058;52.898;6.502;2023-11-19T02:19:51;27.65;;;5.88;;
58260;SDS011;44058;52.898;6.502;2023-11-19T02:22:17;33.45;;;5.45;;
58260;SDS011;44058;52.898;6.502;2023-11-19T02:24:43;29.02;;;5.70;;
58260;SDS011;44058;52.898;6.502;2023-11-19T02:27:14;23.98;;;4.80;;
58260;SDS011;44058;52.898;6.502;2023-11-19T02:29:41;27.35;;;5.03;;
58260;SDS011;44058;52.898;6.502;2023-11-19T02:32:08;21.60;;;4.65;;
58260;SDS011;44058;52.898;6.502;2023-11-19T02:34:35;28.80;;;5.70;;
58260;SDS011;44058;52.898;6.502;2023-11-19T02:37:01;20.90;;;4.50;;
58260;SDS011;44058;52.898;6.502;2023-11-19T02:39:27;24.58;;;5.22;;
58260;SDS011;44058;52.898;6.502;2023-11-19T02:41:54;28.75;;;4.53;;
58260;SDS011;44058;52.898;6.502;2023-11-19T02:44:20;27.70;;;5.82;;
58260;SDS011;44058;52.898;6.502;2023-11-19T02:46:46;28.23;;;5.38;;
58260;SDS011;44058;52.898;6.502;2023-11-19T02:49:13;22.13;;;4.55;;
58260;SDS011;44058;52.898;6.502;2023-11-19T02:51:40;25.85;;;4.38;;
58260;SDS011;44058;52.898;6.502;2023-11-19T02:54:06;23.80;;;5.07;;
58260;SDS011;44058;52.898;6.502;2023-11-19T02:56:32;26.10;;;4.63;;
58260;SDS011;44058;52.898;6.502;2023-11-19T02:59:02;27.35;;;5.18;;
58260;SDS011;44058;52.898;6.502;2023-11-19T03:01:40;23.45;;;5.55;;
58260;SDS011;44058;52.898;6.502;2023-11-19T03:04:09;26.52;;;5.05;;
58260;SDS011;44058;52.898;6.502;2023-11-19T03:06:37;24.40;;;5.07;;
58260;SDS011;44058;52.898;6.502;2023-11-19T03:09:03;23.55;;;4.53;;
58260;SDS011;44058;52.898;6.502;2023-11-19T03:11:35;30.73;;;5.30;;
58260;SDS011;44058;52.898;6.502;2023-11-19T03:14:01;32.85;;;5.97;;
58260;SDS011;44058;52.898;6.502;2023-11-19T03:16:28;24.23;;;5.50;;
58260;SDS011;44058;52.898;6.502;2023-11-19T03:18:54;21.70;;;4.18;;
58260;SDS011;44058;52.898;6.502;2023-11-19T03:21:30;29.98;;;4.70;;
58260;SDS011;44058;52.898;6.502;2023-11-19T03:23:57;32.65;;;4.97;;
58260;SDS011;44058;52.898;6.502;2023-11-19T03:26:26;30.15;;;4.90;;
58260;SDS011;44058;52.898;6.502;2023-11-19T03:28:52;22.42;;;4.80;;
58260;SDS011;44058;52.898;6.502;2023-11-19T03:31:19;26.95;;;4.80;;
58260;SDS011;44058;52.898;6.502;2023-11-19T03:33:45;26.33;;;5.03;;
58260;SDS011;44058;52.898;6.502;2023-11-19T03:36:12;26.98;;;5.05;;
58260;SDS011;44058;52.898;6.502;2023-11-19T03:38:38;26.35;;;4.65;;
58260;SDS011;44058;52.898;6.502;2023-11-19T03:41:13;23.90;;;4.68;;
58260;SDS011;44058;52.898;6.502;2023-11-19T03:43:40;31.13;;;6.38;;
58260;SDS011;44058;52.898;6.502;2023-11-19T03:46:18;29.88;;;5.22;;
58260;SDS011;44058;52.898;6.502;2023-11-19T03:48:45;35.35;;;5.53;;
58260;SDS011;44058;52.898;6.502;2023-11-19T03:51:12;28.83;;;5.32;;
58260;SDS011;44058;52.898;6.502;2023-11-19T03:53:43;29.85;;;5.95;;
58260;SDS011;44058;52.898;6.502;2023-11-19T03:56:09;32.65;;;6.03;;
58260;SDS011;44058;52.898;6.502;2023-11-19T03:58:36;33.97;;;5.88;;
58260;SDS011;44058;52.898;6.502;2023-11-19T04:01:03;25.73;;;5.40;;
58260;SDS011;44058;52.898;6.502;2023-11-19T04:03:30;32.28;;;6.00;;
58260;SDS011;44058;52.898;6.502;2023-11-19T04:05:56;32.83;;;5.70;;
58260;SDS011;44058;52.898;6.502;2023-11-19T04:08:22;31.52;;;5.78;;
58260;SDS011;44058;52.898;6.502;2023-11-19T04:10:48;26.95;;;5.35;;
58260;SDS011;44058;52.898;6.502;2023-11-19T04:13:14;30.60;;;5.78;;
58260;SDS011;44058;52.898;6.502;2023-11-19T04:15:40;30.67;;;6.43;;
58260;SDS011;44058;52.898;6.502;2023-11-19T04:18:08;29.42;;;5.45;;
58260;SDS011;44058;52.898;6.502;2023-11-19T04:20:34;24.30;;;5.30;;
58260;SDS011;44058;52.898;6.502;2023-11-19T04:23:01;28.98;;;5.47;;
58260;SDS011;44058;52.898;6.502;2023-11-19T04:25:27;32.20;;;6.00;;
58260;SDS011;44058;52.898;6.502;2023-11-19T04:27:54;32.80;;;5.68;;
58260;SDS011;44058;52.898;6.502;2023-11-19T04:30:20;28.52;;;6.22;;
58260;SDS011;44058;52.898;6.502;2023-11-19T04:32:46;33.92;;;5.53;;
58260;SDS011;44058;52.898;6.502;2023-11-19T04:35:14;38.65;;;6.20;;
58260;SDS011;44058;52.898;6.502;2023-11-19T04:37:41;30.75;;;5.60;;
58260;SDS011;44058;52.898;6.502;2023-11-19T04:40:07;34.03;;;7.13;;
58260;SDS011;44058;52.898;6.502;2023-11-19T04:42:34;35.28;;;7.10;;
58260;SDS011;44058;52.898;6.502;2023-11-19T04:45:00;42.05;;;7.10;;
58260;SDS011;44058;52.898;6.502;2023-11-19T04:47:27;35.92;;;6.38;;
58260;SDS011;44058;52.898;6.502;2023-11-19T04:49:53;34.33;;;6.10;;
58260;SDS011;44058;52.898;6.502;2023-11-19T04:52:19;31.88;;;5.38;;
58260;SDS011;44058;52.898;6.502;2023-11-19T04:54:45;36.80;;;7.05;;
58260;SDS011;44058;52.898;6.502;2023-11-19T04:57:13;35.17;;;6.35;;
58260;SDS011;44058;52.898;6.502;2023-11-19T04:59:39;39.03;;;5.85;;
58260;SDS011;44058;52.898;6.502;2023-11-19T05:02:06;39.92;;;5.80;;
58260;SDS011;44058;52.898;6.502;2023-11-19T05:04:32;33.60;;;6.20;;
58260;SDS011;44058;52.898;6.502;2023-11-19T05:06:58;36.38;;;6.15;;
58260;SDS011;44058;52.898;6.502;2023-11-19T05:09:24;33.25;;;6.43;;
58260;SDS011;44058;52.898;6.502;2023-11-19T05:11:50;30.60;;;5.45;;
58260;SDS011;44058;52.898;6.502;2023-11-19T05:14:17;31.70;;;5.30;;
58260;SDS011;44058;52.898;6.502;2023-11-19T05:16:45;33.10;;;5.47;;
58260;SDS011;44058;52.898;6.502;2023-11-19T05:19:11;31.88;;;6.00;;
58260;SDS011;44058;52.898;6.502;2023-11-19T05:21:37;34.83;;;6.30;;
58260;SDS011;44058;52.898;6.502;2023-11-19T05:24:03;34.67;;;6.00;;
58260;SDS011;44058;52.898;6.502;2023-11-19T05:26:30;36.38;;;6.40;;
58260;SDS011;44058;52.898;6.502;2023-11-19T05:28:56;32.78;;;6.32;;
58260;SDS011;44058;52.898;6.502;2023-11-19T05:31:22;35.15;;;5.93;;
58260;SDS011;44058;52.898;6.502;2023-11-19T05:33:48;42.45;;;7.13;;
58260;SDS011;44058;52.898;6.502;2023-11-19T05:36:14;43.00;;;6.93;;
58260;SDS011;44058;52.898;6.502;2023-11-19T05:38:41;38.08;;;6.05;;
58260;SDS011;44058;52.898;6.502;2023-11-19T05:41:08;37.47;;;6.65;;
58260;SDS011;44058;52.898;6.502;2023-11-19T05:43:36;33.10;;;5.57;;
58260;SDS011;44058;52.898;6.502;2023-11-19T05:48:31;37.33;;;6.93;;
58260;SDS011;44058;52.898;6.502;2023-11-19T05:50:58;30.25;;;6.15;;
58260;SDS011;44058;52.898;6.502;2023-11-19T05:53:25;30.17;;;5.47;;
58260;SDS011;44058;52.898;6.502;2023-11-19T05:55:51;34.50;;;5.93;;
58260;SDS011;44058;52.898;6.502;2023-11-19T05:58:27;37.42;;;7.03;;
58260;SDS011;44058;52.898;6.502;2023-11-19T06:00:57;34.53;;;6.47;;
58260;SDS011;44058;52.898;6.502;2023-11-19T06:03:26;31.90;;;5.57;;
58260;SDS011;44058;52.898;6.502;2023-11-19T06:05:52;38.58;;;5.85;;
58260;SDS011;44058;52.898;6.502;2023-11-19T06:08:19;34.60;;;5.78;;
58260;SDS011;44058;52.898;6.502;2023-11-19T06:10:46;30.77;;;5.90;;
58260;SDS011;44058;52.898;6.502;2023-11-19T06:13:12;27.13;;;5.40;;
58260;SDS011;44058;52.898;6.502;2023-11-19T06:15:41;33.30;;;6.23;;
58260;SDS011;44058;52.898;6.502;2023-11-19T06:18:07;35.50;;;6.88;;
58260;SDS011;44058;52.898;6.502;2023-11-19T06:20:33;33.75;;;6.10;;
58260;SDS011;44058;52.898;6.502;2023-11-19T06:23:00;36.38;;;6.10;;
58260;SDS011;44058;52.898;6.502;2023-11-19T06:25:26;36.08;;;6.03;;
58260;SDS011;44058;52.898;6.502;2023-11-19T06:27:53;35.03;;;6.20;;
58260;SDS011;44058;52.898;6.502;2023-11-19T06:30:19;34.53;;;5.97;;
58260;SDS011;44058;52.898;6.502;2023-11-19T06:32:45;30.92;;;5.50;;
58260;SDS011;44058;52.898;6.502;2023-11-19T06:35:12;32.80;;;5.40;;
58260;SDS011;44058;52.898;6.502;2023-11-19T06:37:39;36.58;;;6.13;;
58260;SDS011;44058;52.898;6.502;2023-11-19T06:40:06;30.40;;;5.97;;
58260;SDS011;44058;52.898;6.502;2023-11-19T06:42:34;32.40;;;5.35;;
58260;SDS011;44058;52.898;6.502;2023-11-19T06:45:00;32.95;;;6.10;;
58260;SDS011;44058;52.898;6.502;2023-11-19T06:47:27;35.00;;;5.75;;
58260;SDS011;44058;52.898;6.502;2023-11-19T06:49:53;32.20;;;5.32;;
58260;SDS011;44058;52.898;6.502;2023-11-19T06:52:20;30.75;;;6.18;;
58260;SDS011;44058;52.898;6.502;2023-11-19T06:54:46;26.27;;;6.25;;
58260;SDS011;44058;52.898;6.502;2023-11-19T06:57:12;30.25;;;5.70;;
58260;SDS011;44058;52.898;6.502;2023-11-19T06:59:39;37.90;;;6.32;;
58260;SDS011;44058;52.898;6.502;2023-11-19T07:02:05;35.63;;;7.00;;
58260;SDS011;44058;52.898;6.502;2023-11-19T07:04:32;37.15;;;5.40;;
58260;SDS011;44058;52.898;6.502;2023-11-19T07:07:01;32.33;;;6.43;;
58260;SDS011;44058;52.898;6.502;2023-11-19T07:09:27;28.52;;;5.95;;
58260;SDS011;44058;52.898;6.502;2023-11-19T07:11:53;29.92;;;5.35;;
58260;SDS011;44058;52.898;6.502;2023-11-19T07:14:19;33.80;;;5.90;;
58260;SDS011;44058;52.898;6.502;2023-11-19T07:16:46;31.38;;;5.32;;
58260;SDS011;44058;52.898;6.502;2023-11-19T07:19:12;28.13;;;5.28;;
58260;SDS011;44058;52.898;6.502;2023-11-19T07:21:41;32.50;;;5.65;;
58260;SDS011;44058;52.898;6.502;2023-11-19T07:24:09;32.88;;;6.05;;
58260;SDS011;44058;52.898;6.502;2023-11-19T07:26:41;31.95;;;6.25;;
58260;SDS011;44058;52.898;6.502;2023-11-19T07:29:07;35.53;;;6.68;;
58260;SDS011;44058;52.898;6.502;2023-11-19T07:31:33;29.08;;;5.60;;
58260;SDS011;44058;52.898;6.502;2023-11-19T07:33:59;27.95;;;6.03;;
58260;SDS011;44058;52.898;6.502;2023-11-19T07:36:25;39.17;;;6.07;;
58260;SDS011;44058;52.898;6.502;2023-11-19T07:38:51;32.33;;;5.45;;
58260;SDS011;44058;52.898;6.502;2023-11-19T07:41:18;31.02;;;5.28;;
58260;SDS011;44058;52.898;6.502;2023-11-19T07:43:45;40.67;;;6.43;;
58260;SDS011;44058;52.898;6.502;2023-11-19T07:46:15;34.88;;;6.35;;
58260;SDS011;44058;52.898;6.502;2023-11-19T07:48:44;32.30;;;6.68;;
58260;SDS011;44058;52.898;6.502;2023-11-19T07:51:12;32.88;;;6.03;;
58260;SDS011;44058;52.898;6.502;2023-11-19T07:53:39;33.50;;;5.93;;
58260;SDS011;44058;52.898;6.502;2023-11-19T07:56:06;32.75;;;5.75;;
58260;SDS011;44058;52.898;6.502;2023-11-19T07:58:32;30.08;;;5.47;;
58260;SDS011;44058;52.898;6.502;2023-11-19T08:00:58;37.78;;;6.72;;
58260;SDS011;44058;52.898;6.502;2023-11-19T08:03:24;25.83;;;5.60;;
58260;SDS011;44058;52.898;6.502;2023-11-19T08:05:50;33.05;;;6.68;;
58260;SDS011;44058;52.898;6.502;2023-11-19T08:08:16;33.80;;;6.70;;
58260;SDS011;44058;52.898;6.502;2023-11-19T08:10:43;36.22;;;6.03;;
58260;SDS011;44058;52.898;6.502;2023-11-19T08:13:10;32.30;;;6.65;;
58260;SDS011;44058;52.898;6.502;2023-11-19T08:15:36;32.72;;;5.63;;
58260;SDS011;44058;52.898;6.502;2023-11-19T08:18:02;27.27;;;5.43;;
58260;SDS011;44058;52.898;6.502;2023-11-19T08:20:28;24.70;;;4.80;;
58260;SDS011;44058;52.898;6.502;2023-11-19T08:22:54;33.38;;;5.95;;
58260;SDS011;44058;52.898;6.502;2023-11-19T08:25:20;29.75;;;5.85;;
58260;SDS011;44058;52.898;6.502;2023-11-19T08:27:46;31.90;;;6.05;;
58260;SDS011;44058;52.898;6.502;2023-11-19T08:30:12;30.33;;;5.88;;
58260;SDS011;44058;52.898;6.502;2023-11-19T08:32:39;34.95;;;6.03;;
58260;SDS011;44058;52.898;6.502;2023-11-19T08:35:05;30.52;;;5.78;;
58260;SDS011;44058;52.898;6.502;2023-11-19T08:37:31;30.10;;;5.80;;
58260;SDS011;44058;52.898;6.502;2023-11-19T08:39:57;32.90;;;5.47;;
58260;SDS011;44058;52.898;6.502;2023-11-19T08:42:25;33.95;;;6.32;;
58260;SDS011;44058;52.898;6.502;2023-11-19T08:44:51;39.38;;;6.63;;
58260;SDS011;44058;52.898;6.502;2023-11-19T08:47:19;36.67;;;5.57;;
58260;SDS011;44058;52.898;6.502;2023-11-19T08:49:47;33.65;;;6.30;;
58260;SDS011;44058;52.898;6.502;2023-11-19T08:52:13;36.28;;;5.75;;
58260;SDS011;44058;52.898;6.502;2023-11-19T08:54:42;31.17;;;6.35;;
58260;SDS011;44058;52.898;6.502;2023-11-19T08:59:35;31.38;;;5.85;;
58260;SDS011;44058;52.898;6.502;2023-11-19T09:02:03;31.50;;;5.43;;
58260;SDS011;44058;52.898;6.502;2023-11-19T09:04:29;33.70;;;5.68;;
58260;SDS011;44058;52.898;6.502;2023-11-19T09:06:57;36.75;;;6.47;;
58260;SDS011;44058;52.898;6.502;2023-11-19T09:09:23;38.53;;;6.22;;
58260;SDS011;44058;52.898;6.502;2023-11-19T09:11:49;29.55;;;5.20;;
58260;SDS011;44058;52.898;6.502;2023-11-19T09:14:15;31.27;;;6.18;;
58260;SDS011;44058;52.898;6.502;2023-11-19T09:16:43;39.17;;;6.88;;
58260;SDS011;44058;52.898;6.502;2023-11-19T09:19:09;27.77;;;6.28;;
58260;SDS011;44058;52.898;6.502;2023-11-19T09:21:35;30.80;;;5.65;;
58260;SDS011;44058;52.898;6.502;2023-11-19T09:24:04;31.65;;;5.82;;
58260;SDS011;44058;52.898;6.502;2023-11-19T09:26:30;34.70;;;6.15;;
58260;SDS011;44058;52.898;6.502;2023-11-19T09:28:56;30.83;;;5.28;;
58260;SDS011;44058;52.898;6.502;2023-11-19T09:31:22;36.80;;;6.47;;
58260;SDS011;44058;52.898;6.502;2023-11-19T09:33:49;32.58;;;5.88;;
58260;SDS011;44058;52.898;6.502;2023-11-19T09:36:15;39.13;;;6.43;;
58260;SDS011;44058;52.898;6.502;2023-11-19T09:38:42;27.63;;;5.38;;
58260;SDS011;44058;52.898;6.502;2023-11-19T09:41:09;33.30;;;5.88;;
58260;SDS011;44058;52.898;6.502;2023-11-19T09:43:41;20.15;;;4.50;;
58260;SDS011;44058;52.898;6.502;2023-11-19T09:46:11;30.20;;;6.00;;
58260;SDS011;44058;52.898;6.502;2023-11-19T09:48:39;35.60;;;5.45;;
58260;SDS011;44058;52.898;6.502;2023-11-19T09:51:06;30.42;;;5.30;;
58260;SDS011;44058;52.898;6.502;2023-11-19T09:53:32;30.83;;;5.43;;
58260;SDS011;44058;52.898;6.502;2023-11-19T09:56:02;30.00;;;5.45;;
58260;SDS011;44058;52.898;6.502;2023-11-19T09:58:31;29.27;;;5.38;;
58260;SDS011;44058;52.898;6.502;2023-11-19T10:00:58;32.88;;;7.07;;
58260;SDS011;44058;52.898;6.502;2023-11-19T10:03:24;32.85;;;6.30;;
58260;SDS011;44058;52.898;6.502;2023-11-19T10:05:53;33.88;;;5.88;;
58260;SDS011;44058;52.898;6.502;2023-11-19T10:08:21;32.42;;;5.97;;
58260;SDS011;44058;52.898;6.502;2023-11-19T10:10:47;33.17;;;5.43;;
58260;SDS011;44058;52.898;6.502;2023-11-19T10:13:14;33.85;;;5.70;;
58260;SDS011;44058;52.898;6.502;2023-11-19T10:15:40;38.90;;;5.93;;
58260;SDS011;44058;52.898;6.502;2023-11-19T10:18:07;30.08;;;5.63;;
58260;SDS011;44058;52.898;6.502;2023-11-19T10:20:36;33.20;;;5.47;;
58260;SDS011;44058;52.898;6.502;2023-11-19T10:23:02;29.30;;;5.57;;
58260;SDS011;44058;52.898;6.502;2023-11-19T10:25:29;23.08;;;5.05;;
58260;SDS011;44058;52.898;6.502;2023-11-19T10:27:55;28.75;;;4.85;;
58260;SDS011;44058;52.898;6.502;2023-11-19T10:33:04;33.65;;;6.28;;
58260;SDS011;44058;52.898;6.502;2023-11-19T10:35:34;29.83;;;6.70;;
58260;SDS011;44058;52.898;6.502;2023-11-19T10:38:01;34.17;;;5.22;;
58260;SDS011;44058;52.898;6.502;2023-11-19T10:40:39;29.33;;;5.63;;
58260;SDS011;44058;52.898;6.502;2023-11-19T10:43:06;26.80;;;4.65;;
58260;SDS011;44058;52.898;6.502;2023-11-19T10:45:36;29.85;;;4.82;;
58260;SDS011;44058;52.898;6.502;2023-11-19T10:48:03;28.60;;;5.05;;
58260;SDS011;44058;52.898;6.502;2023-11-19T10:50:35;31.45;;;5.43;;
58260;SDS011;44058;52.898;6.502;2023-11-19T10:53:02;24.60;;;4.75;;
58260;SDS011;44058;52.898;6.502;2023-11-19T10:55:29;40.20;;;5.90;;
58260;SDS011;44058;52.898;6.502;2023-11-19T10:58:00;30.40;;;5.57;;
58260;SDS011;44058;52.898;6.502;2023-11-19T11:00:26;25.88;;;4.68;;
58260;SDS011;44058;52.898;6.502;2023-11-19T11:02:56;31.58;;;5.32;;
58260;SDS011;44058;52.898;6.502;2023-11-19T11:05:25;31.27;;;5.85;;
58260;SDS011;44058;52.898;6.502;2023-11-19T11:07:52;29.55;;;5.47;;
58260;SDS011;44058;52.898;6.502;2023-11-19T11:10:22;35.95;;;6.53;;
58260;SDS011;44058;52.898;6.502;2023-11-19T11:12:51;25.48;;;5.38;;
58260;SDS011;44058;52.898;6.502;2023-11-19T11:15:27;26.42;;;4.63;;
58260;SDS011;44058;52.898;6.502;2023-11-19T11:17:55;25.63;;;5.00;;
58260;SDS011;44058;52.898;6.502;2023-11-19T11:20:23;33.10;;;6.15;;
58260;SDS011;44058;52.898;6.502;2023-11-19T11:26:05;31.25;;;4.75;;
58260;SDS011;44058;52.898;6.502;2023-11-19T11:38:27;33.08;;;6.25;;
58260;SDS011;44058;52.898;6.502;2023-11-19T11:43:52;31.77;;;5.57;;
58260;SDS011;44058;52.898;6.502;2023-11-19T11:49:03;28.52;;;5.50;;
58260;SDS011;44058;52.898;6.502;2023-11-19T11:51:57;34.30;;;5.45;;
58260;SDS011;44058;52.898;6.502;2023-11-19T12:02:07;42.07;;;6.90;;
58260;SDS011;44058;52.898;6.502;2023-11-19T12:04:34;28.40;;;5.47;;
58260;SDS011;44058;52.898;6.502;2023-11-19T12:07:04;30.35;;;5.15;;
58260;SDS011;44058;52.898;6.502;2023-11-19T12:09:31;24.48;;;4.53;;
58260;SDS011;44058;52.898;6.502;2023-11-19T12:12:07;26.65;;;5.63;;
58260;SDS011;44058;52.898;6.502;2023-11-19T12:20:03;28.42;;;5.18;;
58260;SDS011;44058;52.898;6.502;2023-11-19T12:22:40;25.10;;;5.30;;
58260;SDS011;44058;52.898;6.502;2023-11-19T12:25:07;34.08;;;5.63;;
58260;SDS011;44058;52.898;6.502;2023-11-19T12:27:34;32.28;;;6.07;;
58260;SDS011;44058;52.898;6.502;2023-11-19T12:30:01;28.13;;;5.05;;
58260;SDS011;44058;52.898;6.502;2023-11-19T12:32:44;25.25;;;4.85;;
58260;SDS011;44058;52.898;6.502;2023-11-19T12:35:10;25.85;;;4.97;;
58260;SDS011;44058;52.898;6.502;2023-11-19T12:37:43;28.63;;;5.57;;
58260;SDS011;44058;52.898;6.502;2023-11-19T12:40:11;34.38;;;5.55;;
58260;SDS011;44058;52.898;6.502;2023-11-19T12:42:38;28.50;;;4.72;;
58260;SDS011;44058;52.898;6.502;2023-11-19T12:45:04;31.77;;;4.70;;
58260;SDS011;44058;52.898;6.502;2023-11-19T12:47:32;23.20;;;4.38;;
58260;SDS011;44058;52.898;6.502;2023-11-19T12:49:58;30.42;;;5.63;;
58260;SDS011;44058;52.898;6.502;2023-11-19T12:52:24;23.92;;;4.75;;
58260;SDS011;44058;52.898;6.502;2023-11-19T12:54:50;27.73;;;4.80;;
58260;SDS011;44058;52.898;6.502;2023-11-19T12:57:17;28.70;;;5.22;;
58260;SDS011;44058;52.898;6.502;2023-11-19T12:59:54;28.17;;;5.07;;
58260;SDS011;44058;52.898;6.502;2023-11-19T13:02:21;23.60;;;4.78;;
58260;SDS011;44058;52.898;6.502;2023-11-19T13:04:48;26.58;;;5.05;;
58260;SDS011;44058;52.898;6.502;2023-11-19T13:07:20;26.85;;;4.93;;
58260;SDS011;44058;52.898;6.502;2023-11-19T13:09:46;29.63;;;5.50;;
58260;SDS011;44058;52.898;6.502;2023-11-19T13:12:13;33.38;;;5.72;;
58260;SDS011;44058;52.898;6.502;2023-11-19T13:14:39;26.50;;;4.78;;
58260;SDS011;44058;52.898;6.502;2023-11-19T13:17:07;27.25;;;5.03;;
58260;SDS011;44058;52.898;6.502;2023-11-19T13:19:33;32.15;;;5.43;;
58260;SDS011;44058;52.898;6.502;2023-11-19T13:22:00;24.33;;;5.93;;
58260;SDS011;44058;52.898;6.502;2023-11-19T13:24:26;29.55;;;5.07;;
58260;SDS011;44058;52.898;6.502;2023-11-19T13:26:52;28.58;;;5.30;;
58260;SDS011;44058;52.898;6.502;2023-11-19T13:29:18;28.40;;;4.90;;
58260;SDS011;44058;52.898;6.502;2023-11-19T13:31:44;27.40;;;4.35;;
58260;SDS011;44058;52.898;6.502;2023-11-19T13:34:10;24.35;;;4.97;;
58260;SDS011;44058;52.898;6.502;2023-11-19T13:36:36;25.33;;;5.97;;
58260;SDS011;44058;52.898;6.502;2023-11-19T13:39:03;33.35;;;5.22;;
58260;SDS011;44058;52.898;6.502;2023-11-19T13:41:29;31.08;;;5.35;;
58260;SDS011;44058;52.898;6.502;2023-11-19T13:43:55;29.85;;;4.88;;
58260;SDS011;44058;52.898;6.502;2023-11-19T13:46:21;32.55;;;5.18;;
58260;SDS011;44058;52.898;6.502;2023-11-19T13:48:48;33.22;;;5.38;;
58260;SDS011;44058;52.898;6.502;2023-11-19T13:51:14;26.98;;;4.13;;
58260;SDS011;44058;52.898;6.502;2023-11-19T13:53:41;28.55;;;4.53;;
58260;SDS011;44058;52.898;6.502;2023-11-19T13:56:08;23.35;;;4.50;;
58260;SDS011;44058;52.898;6.502;2023-11-19T13:58:34;24.33;;;4.95;;
58260;SDS011;44058;52.898;6.502;2023-11-19T14:01:00;28.10;;;4.53;;
58260;SDS011;44058;52.898;6.502;2023-11-19T14:03:27;23.38;;;4.70;;
58260;SDS011;44058;52.898;6.502;2023-11-19T14:05:53;26.50;;;4.72;;
58260;SDS011;44058;52.898;6.502;2023-11-19T14:08:20;21.67;;;4.07;;
58260;SDS011;44058;52.898;6.502;2023-11-19T14:10:46;29.45;;;5.32;;
58260;SDS011;44058;52.898;6.502;2023-11-19T14:13:12;28.88;;;4.60;;
58260;SDS011;44058;52.898;6.502;2023-11-19T14:15:40;29.38;;;4.70;;
58260;SDS011;44058;52.898;6.502;2023-11-19T14:18:07;24.95;;;4.93;;
58260;SDS011;44058;52.898;6.502;2023-11-19T14:20:33;28.60;;;4.60;;
58260;SDS011;44058;52.898;6.502;2023-11-19T14:23:01;22.42;;;4.57;;
58260;SDS011;44058;52.898;6.502;2023-11-19T14:25:27;24.33;;;4.43;;
58260;SDS011;44058;52.898;6.502;2023-11-19T14:27:53;26.45;;;4.60;;
58260;SDS011;44058;52.898;6.502;2023-11-19T14:30:19;32.53;;;5.65;;
58260;SDS011;44058;52.898;6.502;2023-11-19T14:32:45;20.73;;;4.20;;
58260;SDS011;44058;52.898;6.502;2023-11-19T14:35:13;30.80;;;5.32;;
58260;SDS011;44058;52.898;6.502;2023-11-19T14:37:40;31.23;;;5.00;;
58260;SDS011;44058;52.898;6.502;2023-11-19T14:40:06;32.30;;;5.82;;
58260;SDS011;44058;52.898;6.502;2023-11-19T14:42:35;30.88;;;5.80;;
58260;SDS011;44058;52.898;6.502;2023-11-19T14:45:02;25.05;;;4.75;;
58260;SDS011;44058;52.898;6.502;2023-11-19T14:47:28;24.08;;;5.57;;
58260;SDS011;44058;52.898;6.502;2023-11-19T14:49:55;31.60;;;5.47;;
58260;SDS011;44058;52.898;6.502;2023-11-19T14:52:21;27.52;;;4.45;;
58260;SDS011;44058;52.898;6.502;2023-11-19T14:54:47;23.77;;;4.57;;
58260;SDS011;44058;52.898;6.502;2023-11-19T14:57:13;24.33;;;4.30;;
58260;SDS011;44058;52.898;6.502;2023-11-19T14:59:39;21.15;;;4.10;;
58260;SDS011;44058;52.898;6.502;2023-11-19T15:02:06;30.10;;;5.53;;
58260;SDS011;44058;52.898;6.502;2023-11-19T15:04:32;21.90;;;4.38;;
58260;SDS011;44058;52.898;6.502;2023-11-19T15:06:59;28.38;;;4.55;;
58260;SDS011;44058;52.898;6.502;2023-11-19T15:09:25;23.48;;;4.80;;
58260;SDS011;44058;52.898;6.502;2023-11-19T15:11:55;25.23;;;4.47;;
58260;SDS011;44058;52.898;6.502;2023-11-19T15:14:23;27.85;;;4.90;;